sensor_id;sensor_type;location;lat;lon;timestamp;P1;durP1;ratioP1;P2;durP2;ratioP2
38843;SDS011;24596;48.080;8.362;2022-09-11T00:00:32;4.93;;;1.15;;
38843;SDS011;24596;48.080;8.362;2022-09-11T00:02:57;5.85;;;1.17;;
38843;SDS011;24596;48.080;8.362;2022-09-11T00:05:22;4.43;;;0.98;;
38843;SDS011;24596;48.080;8.362;2022-09-11T00:07:49;4.65;;;1.15;;
38843;SDS011;24596;48.080;8.362;2022-09-11T00:10:15;3.80;;;1.13;;
38843;SDS011;24596;48.080;8.362;2022-09-11T00:12:40;4.63;;;1.17;;
38843;SDS011;24596;48.080;8.362;2022-09-11T00:15:05;3.08;;;1.30;;
38843;SDS011;24596;48.080;8.362;2022-09-11T00:17:31;4.40;;;1.15;;
38843;SDS011;24596;48.080;8.362;2022-09-11T00:19:56;4.22;;;0.95;;
38843;SDS011;24596;48.080;8.362;2022-09-11T00:22:21;3.10;;;1.20;;
38843;SDS011;24596;48.080;8.362;2022-09-11T00:24:47;3.88;;;1.20;;
38843;SDS011;24596;48.080;8.362;2022-09-11T00:27:12;6.07;;;1.40;;
38843;SDS011;24596;48.080;8.362;2022-09-11T00:29:37;5.13;;;1.33;;
38843;SDS011;24596;48.080;8.362;2022-09-11T00:32:02;6.75;;;1.50;;
38843;SDS011;24596;48.080;8.362;2022-09-11T00:34:28;5.90;;;1.50;;
38843;SDS011;24596;48.080;8.362;2022-09-11T00:36:53;4.25;;;1.00;;
38843;SDS011;24596;48.080;8.362;2022-09-11T00:39:18;3.70;;;1.10;;
38843;SDS011;24596;48.080;8.362;2022-09-11T00:41:43;6.55;;;1.25;;
38843;SDS011;24596;48.080;8.362;2022-09-11T00:46:46;5.90;;;1.48;;
38843;SDS011;24596;48.080;8.362;2022-09-11T00:51:51;4.63;;;1.10;;
38843;SDS011;24596;48.080;8.362;2022-09-11T00:54:18;4.43;;;1.13;;
38843;SDS011;24596;48.080;8.362;2022-09-11T00:56:45;4.30;;;1.17;;
38843;SDS011;24596;48.080;8.362;2022-09-11T00:59:12;3.28;;;1.30;;
38843;SDS011;24596;48.080;8.362;2022-09-11T01:01:37;3.58;;;1.00;;
38843;SDS011;24596;48.080;8.362;2022-09-11T01:04:03;7.05;;;1.20;;
38843;SDS011;24596;48.080;8.362;2022-09-11T01:06:28;5.40;;;1.17;;
38843;SDS011;24596;48.080;8.362;2022-09-11T01:08:54;5.65;;;1.13;;
38843;SDS011;24596;48.080;8.362;2022-09-11T01:21:45;5.18;;;1.75;;
38843;SDS011;24596;48.080;8.362;2022-09-11T01:26:46;5.63;;;1.70;;
38843;SDS011;24596;48.080;8.362;2022-09-11T01:29:16;7.55;;;2.28;;
38843;SDS011;24596;48.080;8.362;2022-09-11T01:31:53;3.75;;;1.38;;
38843;SDS011;24596;48.080;8.362;2022-09-11T01:34:32;4.95;;;1.38;;
38843;SDS011;24596;48.080;8.362;2022-09-11T01:37:01;5.05;;;1.60;;
38843;SDS011;24596;48.080;8.362;2022-09-11T01:39:32;4.63;;;1.30;;
38843;SDS011;24596;48.080;8.362;2022-09-11T01:42:06;4.80;;;1.17;;
38843;SDS011;24596;48.080;8.362;2022-09-11T01:44:38;4.47;;;1.30;;
38843;SDS011;24596;48.080;8.362;2022-09-11T01:47:06;4.97;;;1.20;;
38843;SDS011;24596;48.080;8.362;2022-09-11T01:49:35;4.18;;;2.00;;
38843;SDS011;24596;48.080;8.362;2022-09-11T01:52:07;5.78;;;1.95;;
38843;SDS011;24596;48.080;8.362;2022-09-11T01:54:37;3.95;;;1.17;;
38843;SDS011;24596;48.080;8.362;2022-09-11T01:57:07;8.02;;;1.17;;
38843;SDS011;24596;48.080;8.362;2022-09-11T01:59:54;7.25;;;1.17;;
38843;SDS011;24596;48.080;8.362;2022-09-11T02:02:23;4.95;;;1.33;;
38843;SDS011;24596;48.080;8.362;2022-09-11T02:05:04;6.40;;;1.45;;
38843;SDS011;24596;48.080;8.362;2022-09-11T02:07:36;4.65;;;1.15;;
38843;SDS011;24596;48.080;8.362;2022-09-11T02:12:29;7.28;;;1.35;;
38843;SDS011;24596;48.080;8.362;2022-09-11T02:14:59;6.75;;;1.50;;
38843;SDS011;24596;48.080;8.362;2022-09-11T02:17:32;4.25;;;1.13;;
38843;SDS011;24596;48.080;8.362;2022-09-11T02:20:00;3.42;;;1.30;;
38843;SDS011;24596;48.080;8.362;2022-09-11T02:22:26;6.20;;;1.55;;
38843;SDS011;24596;48.080;8.362;2022-09-11T02:24:51;5.47;;;1.15;;
38843;SDS011;24596;48.080;8.362;2022-09-11T02:27:21;4.10;;;1.50;;
38843;SDS011;24596;48.080;8.362;2022-09-11T02:29:46;3.70;;;1.30;;
38843;SDS011;24596;48.080;8.362;2022-09-11T02:32:12;5.00;;;1.25;;
38843;SDS011;24596;48.080;8.362;2022-09-11T02:34:38;4.13;;;1.13;;
38843;SDS011;24596;48.080;8.362;2022-09-11T02:37:22;5.22;;;1.23;;
38843;SDS011;24596;48.080;8.362;2022-09-11T02:47:24;4.70;;;1.33;;
38843;SDS011;24596;48.080;8.362;2022-09-11T02:55:03;6.07;;;1.30;;
38843;SDS011;24596;48.080;8.362;2022-09-11T02:57:40;5.00;;;1.30;;
38843;SDS011;24596;48.080;8.362;2022-09-11T03:00:09;4.03;;;1.30;;
38843;SDS011;24596;48.080;8.362;2022-09-11T03:02:38;3.85;;;1.00;;
38843;SDS011;24596;48.080;8.362;2022-09-11T03:05:04;7.70;;;1.80;;
38843;SDS011;24596;48.080;8.362;2022-09-11T03:07:29;7.15;;;2.85;;
38843;SDS011;24596;48.080;8.362;2022-09-11T03:09:55;4.45;;;1.30;;
38843;SDS011;24596;48.080;8.362;2022-09-11T03:12:20;5.38;;;1.27;;
38843;SDS011;24596;48.080;8.362;2022-09-11T03:14:45;6.47;;;1.50;;
38843;SDS011;24596;48.080;8.362;2022-09-11T03:17:10;4.78;;;1.50;;
38843;SDS011;24596;48.080;8.362;2022-09-11T03:19:35;5.85;;;1.63;;
38843;SDS011;24596;48.080;8.362;2022-09-11T03:22:01;4.35;;;1.60;;
38843;SDS011;24596;48.080;8.362;2022-09-11T03:24:27;4.75;;;1.42;;
38843;SDS011;24596;48.080;8.362;2022-09-11T03:26:52;6.20;;;1.23;;
38843;SDS011;24596;48.080;8.362;2022-09-11T03:29:17;4.53;;;1.60;;
38843;SDS011;24596;48.080;8.362;2022-09-11T03:31:42;5.72;;;1.40;;
38843;SDS011;24596;48.080;8.362;2022-09-11T03:34:08;4.45;;;1.25;;
38843;SDS011;24596;48.080;8.362;2022-09-11T03:36:34;3.30;;;1.27;;
38843;SDS011;24596;48.080;8.362;2022-09-11T03:39:00;4.60;;;1.20;;
38843;SDS011;24596;48.080;8.362;2022-09-11T03:41:25;6.88;;;1.50;;
38843;SDS011;24596;48.080;8.362;2022-09-11T03:43:51;5.55;;;1.27;;
38843;SDS011;24596;48.080;8.362;2022-09-11T03:46:16;5.47;;;1.58;;
38843;SDS011;24596;48.080;8.362;2022-09-11T03:48:41;4.72;;;1.42;;
38843;SDS011;24596;48.080;8.362;2022-09-11T03:51:07;4.65;;;1.42;;
38843;SDS011;24596;48.080;8.362;2022-09-11T03:53:32;4.00;;;1.67;;
38843;SDS011;24596;48.080;8.362;2022-09-11T03:56:00;5.72;;;1.58;;
38843;SDS011;24596;48.080;8.362;2022-09-11T03:58:27;5.85;;;1.88;;
38843;SDS011;24596;48.080;8.362;2022-09-11T04:00:53;7.07;;;1.80;;
38843;SDS011;24596;48.080;8.362;2022-09-11T04:03:18;7.15;;;2.00;;
38843;SDS011;24596;48.080;8.362;2022-09-11T04:05:53;8.23;;;1.75;;
38843;SDS011;24596;48.080;8.362;2022-09-11T04:08:19;3.05;;;1.20;;
38843;SDS011;24596;48.080;8.362;2022-09-11T04:10:44;4.97;;;1.38;;
38843;SDS011;24596;48.080;8.362;2022-09-11T04:13:09;4.38;;;1.70;;
38843;SDS011;24596;48.080;8.362;2022-09-11T04:15:36;6.88;;;1.45;;
38843;SDS011;24596;48.080;8.362;2022-09-11T04:18:04;4.40;;;1.60;;
38843;SDS011;24596;48.080;8.362;2022-09-11T04:20:29;3.58;;;1.35;;
38843;SDS011;24596;48.080;8.362;2022-09-11T04:22:54;3.17;;;1.40;;
38843;SDS011;24596;48.080;8.362;2022-09-11T04:25:20;5.90;;;1.50;;
38843;SDS011;24596;48.080;8.362;2022-09-11T04:27:45;4.70;;;1.50;;
38843;SDS011;24596;48.080;8.362;2022-09-11T04:30:10;6.45;;;1.63;;
38843;SDS011;24596;48.080;8.362;2022-09-11T04:32:36;7.57;;;1.88;;
38843;SDS011;24596;48.080;8.362;2022-09-11T04:35:01;7.57;;;1.75;;
38843;SDS011;24596;48.080;8.362;2022-09-11T04:37:26;6.85;;;1.45;;
38843;SDS011;24596;48.080;8.362;2022-09-11T04:39:52;4.57;;;1.30;;
38843;SDS011;24596;48.080;8.362;2022-09-11T04:42:18;7.30;;;1.80;;
38843;SDS011;24596;48.080;8.362;2022-09-11T04:44:43;3.25;;;1.70;;
38843;SDS011;24596;48.080;8.362;2022-09-11T04:47:08;6.65;;;1.80;;
38843;SDS011;24596;48.080;8.362;2022-09-11T04:49:33;3.47;;;1.50;;
38843;SDS011;24596;48.080;8.362;2022-09-11T04:51:59;3.67;;;1.35;;
38843;SDS011;24596;48.080;8.362;2022-09-11T04:54:29;5.95;;;1.70;;
38843;SDS011;24596;48.080;8.362;2022-09-11T04:56:55;3.25;;;1.40;;
38843;SDS011;24596;48.080;8.362;2022-09-11T04:59:21;2.63;;;1.42;;
38843;SDS011;24596;48.080;8.362;2022-09-11T05:01:47;2.72;;;1.42;;
38843;SDS011;24596;48.080;8.362;2022-09-11T05:04:13;3.40;;;1.33;;
38843;SDS011;24596;48.080;8.362;2022-09-11T05:06:38;4.07;;;1.40;;
38843;SDS011;24596;48.080;8.362;2022-09-11T05:09:04;5.13;;;1.55;;
38843;SDS011;24596;48.080;8.362;2022-09-11T05:11:30;4.72;;;1.65;;
38843;SDS011;24596;48.080;8.362;2022-09-11T05:13:56;4.57;;;1.60;;
38843;SDS011;24596;48.080;8.362;2022-09-11T05:16:25;3.05;;;1.50;;
38843;SDS011;24596;48.080;8.362;2022-09-11T05:18:51;3.05;;;1.52;;
38843;SDS011;24596;48.080;8.362;2022-09-11T05:21:16;5.95;;;1.80;;
38843;SDS011;24596;48.080;8.362;2022-09-11T05:23:45;3.72;;;1.50;;
38843;SDS011;24596;48.080;8.362;2022-09-11T05:26:12;3.13;;;1.50;;
38843;SDS011;24596;48.080;8.362;2022-09-11T05:28:38;6.72;;;1.67;;
38843;SDS011;24596;48.080;8.362;2022-09-11T05:31:08;4.70;;;1.60;;
38843;SDS011;24596;48.080;8.362;2022-09-11T05:33:34;5.43;;;1.77;;
38843;SDS011;24596;48.080;8.362;2022-09-11T05:36:01;9.05;;;1.83;;
38843;SDS011;24596;48.080;8.362;2022-09-11T05:38:28;4.88;;;1.73;;
38843;SDS011;24596;48.080;8.362;2022-09-11T05:40:54;6.30;;;1.60;;
38843;SDS011;24596;48.080;8.362;2022-09-11T05:43:19;7.85;;;1.85;;
38843;SDS011;24596;48.080;8.362;2022-09-11T05:45:52;3.13;;;1.40;;
38843;SDS011;24596;48.080;8.362;2022-09-11T05:48:17;3.65;;;1.50;;
38843;SDS011;24596;48.080;8.362;2022-09-11T05:50:50;6.10;;;1.77;;
38843;SDS011;24596;48.080;8.362;2022-09-11T05:53:15;4.00;;;1.65;;
38843;SDS011;24596;48.080;8.362;2022-09-11T05:55:41;4.35;;;1.98;;
38843;SDS011;24596;48.080;8.362;2022-09-11T05:58:06;5.03;;;1.73;;
38843;SDS011;24596;48.080;8.362;2022-09-11T06:00:32;3.72;;;1.80;;
38843;SDS011;24596;48.080;8.362;2022-09-11T06:02:57;3.58;;;1.60;;
38843;SDS011;24596;48.080;8.362;2022-09-11T06:05:22;5.80;;;1.80;;
38843;SDS011;24596;48.080;8.362;2022-09-11T06:07:48;6.35;;;1.83;;
38843;SDS011;24596;48.080;8.362;2022-09-11T06:10:15;5.30;;;1.77;;
38843;SDS011;24596;48.080;8.362;2022-09-11T06:12:40;3.58;;;1.50;;
38843;SDS011;24596;48.080;8.362;2022-09-11T06:15:06;7.53;;;1.98;;
38843;SDS011;24596;48.080;8.362;2022-09-11T06:17:31;5.20;;;1.83;;
38843;SDS011;24596;48.080;8.362;2022-09-11T06:19:57;7.20;;;2.10;;
38843;SDS011;24596;48.080;8.362;2022-09-11T06:22:22;6.03;;;2.50;;
38843;SDS011;24596;48.080;8.362;2022-09-11T06:24:47;6.65;;;2.10;;
38843;SDS011;24596;48.080;8.362;2022-09-11T06:27:13;5.80;;;1.85;;
38843;SDS011;24596;48.080;8.362;2022-09-11T06:29:38;6.05;;;2.00;;
38843;SDS011;24596;48.080;8.362;2022-09-11T06:32:04;4.78;;;2.35;;
38843;SDS011;24596;48.080;8.362;2022-09-11T06:34:30;5.57;;;2.35;;
38843;SDS011;24596;48.080;8.362;2022-09-11T06:36:55;7.82;;;2.92;;
38843;SDS011;24596;48.080;8.362;2022-09-11T06:39:21;9.00;;;2.78;;
38843;SDS011;24596;48.080;8.362;2022-09-11T06:41:49;5.35;;;2.17;;
38843;SDS011;24596;48.080;8.362;2022-09-11T06:44:17;5.50;;;2.17;;
38843;SDS011;24596;48.080;8.362;2022-09-11T06:46:43;4.55;;;1.70;;
38843;SDS011;24596;48.080;8.362;2022-09-11T06:49:09;5.70;;;2.08;;
38843;SDS011;24596;48.080;8.362;2022-09-11T06:51:34;8.10;;;1.92;;
38843;SDS011;24596;48.080;8.362;2022-09-11T06:53:59;7.13;;;2.10;;
38843;SDS011;24596;48.080;8.362;2022-09-11T06:56:26;5.20;;;1.98;;
38843;SDS011;24596;48.080;8.362;2022-09-11T06:58:51;6.53;;;2.47;;
38843;SDS011;24596;48.080;8.362;2022-09-11T07:01:17;8.63;;;2.15;;
38843;SDS011;24596;48.080;8.362;2022-09-11T07:03:43;6.10;;;1.98;;
38843;SDS011;24596;48.080;8.362;2022-09-11T07:06:09;5.93;;;2.00;;
38843;SDS011;24596;48.080;8.362;2022-09-11T07:08:34;3.40;;;1.50;;
38843;SDS011;24596;48.080;8.362;2022-09-11T07:11:02;6.13;;;1.80;;
38843;SDS011;24596;48.080;8.362;2022-09-11T07:13:28;6.47;;;2.20;;
38843;SDS011;24596;48.080;8.362;2022-09-11T07:16:03;6.70;;;1.95;;
38843;SDS011;24596;48.080;8.362;2022-09-11T07:18:36;3.97;;;1.80;;
38843;SDS011;24596;48.080;8.362;2022-09-11T07:21:05;5.25;;;1.98;;
38843;SDS011;24596;48.080;8.362;2022-09-11T07:23:31;5.40;;;1.90;;
38843;SDS011;24596;48.080;8.362;2022-09-11T07:25:56;5.60;;;2.17;;
38843;SDS011;24596;48.080;8.362;2022-09-11T07:28:22;4.85;;;1.52;;
38843;SDS011;24596;48.080;8.362;2022-09-11T07:30:47;6.43;;;1.63;;
38843;SDS011;24596;48.080;8.362;2022-09-11T07:33:14;6.50;;;1.80;;
38843;SDS011;24596;48.080;8.362;2022-09-11T07:35:39;5.95;;;2.10;;
38843;SDS011;24596;48.080;8.362;2022-09-11T07:38:05;5.93;;;1.88;;
38843;SDS011;24596;48.080;8.362;2022-09-11T07:40:30;5.70;;;2.65;;
38843;SDS011;24596;48.080;8.362;2022-09-11T07:42:55;5.13;;;1.90;;
38843;SDS011;24596;48.080;8.362;2022-09-11T07:45:20;5.50;;;1.70;;
38843;SDS011;24596;48.080;8.362;2022-09-11T07:47:45;4.70;;;1.95;;
38843;SDS011;24596;48.080;8.362;2022-09-11T07:50:11;5.47;;;2.10;;
38843;SDS011;24596;48.080;8.362;2022-09-11T07:52:36;6.47;;;2.47;;
38843;SDS011;24596;48.080;8.362;2022-09-11T07:55:02;5.78;;;2.47;;
38843;SDS011;24596;48.080;8.362;2022-09-11T07:57:28;6.43;;;1.92;;
38843;SDS011;24596;48.080;8.362;2022-09-11T07:59:54;7.47;;;1.92;;
38843;SDS011;24596;48.080;8.362;2022-09-11T08:02:19;5.15;;;2.00;;
38843;SDS011;24596;48.080;8.362;2022-09-11T08:04:44;5.60;;;2.10;;
38843;SDS011;24596;48.080;8.362;2022-09-11T08:07:09;6.30;;;1.90;;
38843;SDS011;24596;48.080;8.362;2022-09-11T08:09:35;5.28;;;2.03;;
38843;SDS011;24596;48.080;8.362;2022-09-11T08:12:00;5.53;;;1.95;;
38843;SDS011;24596;48.080;8.362;2022-09-11T08:14:26;7.00;;;2.22;;
38843;SDS011;24596;48.080;8.362;2022-09-11T08:16:52;7.43;;;2.33;;
38843;SDS011;24596;48.080;8.362;2022-09-11T08:19:18;9.40;;;2.20;;
38843;SDS011;24596;48.080;8.362;2022-09-11T08:21:43;6.35;;;2.30;;
38843;SDS011;24596;48.080;8.362;2022-09-11T08:24:11;7.93;;;1.90;;
38843;SDS011;24596;48.080;8.362;2022-09-11T08:26:37;5.57;;;2.20;;
38843;SDS011;24596;48.080;8.362;2022-09-11T08:29:02;6.32;;;2.10;;
38843;SDS011;24596;48.080;8.362;2022-09-11T08:31:28;6.32;;;2.60;;
38843;SDS011;24596;48.080;8.362;2022-09-11T08:33:53;7.68;;;2.15;;
38843;SDS011;24596;48.080;8.362;2022-09-11T08:36:19;5.68;;;2.00;;
38843;SDS011;24596;48.080;8.362;2022-09-11T08:38:44;9.07;;;2.35;;
38843;SDS011;24596;48.080;8.362;2022-09-11T08:43:36;5.00;;;1.88;;
38843;SDS011;24596;48.080;8.362;2022-09-11T08:46:04;9.07;;;2.17;;
38843;SDS011;24596;48.080;8.362;2022-09-11T08:48:51;6.68;;;2.10;;
38843;SDS011;24596;48.080;8.362;2022-09-11T08:51:18;8.77;;;3.65;;
38843;SDS011;24596;48.080;8.362;2022-09-11T08:53:44;8.93;;;2.25;;
38843;SDS011;24596;48.080;8.362;2022-09-11T08:56:20;7.93;;;2.00;;
38843;SDS011;24596;48.080;8.362;2022-09-11T09:01:44;5.97;;;1.95;;
38843;SDS011;24596;48.080;8.362;2022-09-11T09:12:19;7.25;;;2.08;;
38843;SDS011;24596;48.080;8.362;2022-09-11T09:15:14;4.20;;;1.67;;
38843;SDS011;24596;48.080;8.362;2022-09-11T09:17:45;6.25;;;1.80;;
38843;SDS011;24596;48.080;8.362;2022-09-11T09:20:25;4.05;;;1.75;;
38843;SDS011;24596;48.080;8.362;2022-09-11T09:25:36;4.13;;;1.80;;
38843;SDS011;24596;48.080;8.362;2022-09-11T09:28:07;7.50;;;2.10;;
38843;SDS011;24596;48.080;8.362;2022-09-11T09:30:43;4.70;;;2.20;;
38843;SDS011;24596;48.080;8.362;2022-09-11T09:35:40;4.07;;;1.50;;
38843;SDS011;24596;48.080;8.362;2022-09-11T09:38:12;4.55;;;1.63;;
38843;SDS011;24596;48.080;8.362;2022-09-11T09:47:55;5.27;;;1.57;;
38843;SDS011;24596;48.080;8.362;2022-09-11T09:52:46;7.53;;;2.07;;
38843;SDS011;24596;48.080;8.362;2022-09-11T09:55:13;6.00;;;1.90;;
38843;SDS011;24596;48.080;8.362;2022-09-11T09:57:39;4.53;;;2.20;;
38843;SDS011;24596;48.080;8.362;2022-09-11T10:05:05;4.90;;;1.83;;
38843;SDS011;24596;48.080;8.362;2022-09-11T10:07:32;6.38;;;1.90;;
38843;SDS011;24596;48.080;8.362;2022-09-11T10:09:57;4.72;;;1.60;;
38843;SDS011;24596;48.080;8.362;2022-09-11T10:12:27;6.40;;;1.42;;
38843;SDS011;24596;48.080;8.362;2022-09-11T10:14:56;6.60;;;2.33;;
38843;SDS011;24596;48.080;8.362;2022-09-11T10:17:23;5.72;;;1.75;;
38843;SDS011;24596;48.080;8.362;2022-09-11T10:19:54;4.43;;;2.08;;
38843;SDS011;24596;48.080;8.362;2022-09-11T10:22:30;5.90;;;2.00;;
38843;SDS011;24596;48.080;8.362;2022-09-11T10:25:08;5.00;;;1.85;;
38843;SDS011;24596;48.080;8.362;2022-09-11T10:30:23;5.13;;;1.48;;
38843;SDS011;24596;48.080;8.362;2022-09-11T10:32:49;2.67;;;1.20;;
38843;SDS011;24596;48.080;8.362;2022-09-11T10:35:15;2.67;;;1.30;;
38843;SDS011;24596;48.080;8.362;2022-09-11T10:37:40;2.80;;;1.20;;
38843;SDS011;24596;48.080;8.362;2022-09-11T10:40:06;3.58;;;1.25;;
38843;SDS011;24596;48.080;8.362;2022-09-11T10:42:32;2.25;;;1.00;;
38843;SDS011;24596;48.080;8.362;2022-09-11T10:45:11;3.90;;;1.58;;
38843;SDS011;24596;48.080;8.362;2022-09-11T10:47:39;2.88;;;1.15;;
38843;SDS011;24596;48.080;8.362;2022-09-11T10:55:25;2.97;;;1.10;;
38843;SDS011;24596;48.080;8.362;2022-09-11T10:57:51;5.05;;;1.27;;
38843;SDS011;24596;48.080;8.362;2022-09-11T11:00:18;4.22;;;1.13;;
38843;SDS011;24596;48.080;8.362;2022-09-11T11:02:45;3.38;;;1.33;;
38843;SDS011;24596;48.080;8.362;2022-09-11T11:05:16;2.50;;;1.05;;
38843;SDS011;24596;48.080;8.362;2022-09-11T11:10:43;4.22;;;1.70;;
38843;SDS011;24596;48.080;8.362;2022-09-11T11:15:48;2.85;;;1.17;;
38843;SDS011;24596;48.080;8.362;2022-09-11T11:38:58;2.10;;;1.00;;
38843;SDS011;24596;48.080;8.362;2022-09-11T11:44:28;3.00;;;1.10;;
38843;SDS011;24596;48.080;8.362;2022-09-11T11:46:55;3.47;;;1.10;;
38843;SDS011;24596;48.080;8.362;2022-09-11T11:54:54;4.18;;;1.10;;
38843;SDS011;24596;48.080;8.362;2022-09-11T11:57:24;2.75;;;0.80;;
38843;SDS011;24596;48.080;8.362;2022-09-11T12:00:04;2.10;;;0.98;;
38843;SDS011;24596;48.080;8.362;2022-09-11T12:02:56;3.50;;;0.85;;
38843;SDS011;24596;48.080;8.362;2022-09-11T12:05:26;2.15;;;0.80;;
38843;SDS011;24596;48.080;8.362;2022-09-11T12:07:51;2.65;;;1.30;;
38843;SDS011;24596;48.080;8.362;2022-09-11T12:10:21;1.45;;;0.70;;
38843;SDS011;24596;48.080;8.362;2022-09-11T12:12:55;2.53;;;0.80;;
38843;SDS011;24596;48.080;8.362;2022-09-11T12:15:23;4.95;;;1.05;;
38843;SDS011;24596;48.080;8.362;2022-09-11T12:18:02;1.77;;;0.75;;
38843;SDS011;24596;48.080;8.362;2022-09-11T12:20:35;2.45;;;0.90;;
38843;SDS011;24596;48.080;8.362;2022-09-11T12:23:02;4.50;;;1.00;;
38843;SDS011;24596;48.080;8.362;2022-09-11T12:30:55;2.88;;;1.00;;
38843;SDS011;24596;48.080;8.362;2022-09-11T12:33:53;3.63;;;1.30;;
38843;SDS011;24596;48.080;8.362;2022-09-11T12:36:13;2.70;;;1.10;;
38843;SDS011;24596;48.080;8.362;2022-09-11T12:38:41;2.40;;;1.15;;
38843;SDS011;24596;48.080;8.362;2022-09-11T12:41:42;5.18;;;1.40;;
38843;SDS011;24596;48.080;8.362;2022-09-11T12:44:01;3.15;;;1.33;;
38843;SDS011;24596;48.080;8.362;2022-09-11T12:51:33;2.75;;;1.17;;
38843;SDS011;24596;48.080;8.362;2022-09-11T12:54:02;3.33;;;1.60;;
38843;SDS011;24596;48.080;8.362;2022-09-11T12:56:31;3.45;;;1.65;;
38843;SDS011;24596;48.080;8.362;2022-09-11T12:59:03;4.90;;;1.27;;
38843;SDS011;24596;48.080;8.362;2022-09-11T13:01:37;4.47;;;1.23;;
38843;SDS011;24596;48.080;8.362;2022-09-11T13:04:12;4.53;;;1.10;;
38843;SDS011;24596;48.080;8.362;2022-09-11T13:06:46;3.65;;;1.20;;
38843;SDS011;24596;48.080;8.362;2022-09-11T13:09:54;6.38;;;1.48;;
38843;SDS011;24596;48.080;8.362;2022-09-11T13:14:46;3.47;;;1.25;;
38843;SDS011;24596;48.080;8.362;2022-09-11T13:17:16;3.90;;;1.27;;
38843;SDS011;24596;48.080;8.362;2022-09-11T13:19:47;3.28;;;1.13;;
38843;SDS011;24596;48.080;8.362;2022-09-11T13:22:19;2.92;;;1.00;;
38843;SDS011;24596;48.080;8.362;2022-09-11T13:24:44;5.53;;;1.20;;
38843;SDS011;24596;48.080;8.362;2022-09-11T13:27:23;3.20;;;1.17;;
38843;SDS011;24596;48.080;8.362;2022-09-11T13:29:50;2.22;;;1.20;;
38843;SDS011;24596;48.080;8.362;2022-09-11T13:32:16;4.65;;;1.33;;
38843;SDS011;24596;48.080;8.362;2022-09-11T13:34:45;2.30;;;1.20;;
38843;SDS011;24596;48.080;8.362;2022-09-11T13:37:23;2.83;;;1.35;;
38843;SDS011;24596;48.080;8.362;2022-09-11T13:39:52;5.13;;;1.05;;
38843;SDS011;24596;48.080;8.362;2022-09-11T13:42:18;4.18;;;1.23;;
38843;SDS011;24596;48.080;8.362;2022-09-11T13:44:51;2.15;;;1.27;;
38843;SDS011;24596;48.080;8.362;2022-09-11T13:47:20;3.42;;;1.30;;
38843;SDS011;24596;48.080;8.362;2022-09-11T13:49:46;4.28;;;1.10;;
38843;SDS011;24596;48.080;8.362;2022-09-11T13:52:13;2.78;;;1.23;;
38843;SDS011;24596;48.080;8.362;2022-09-11T13:54:43;3.58;;;1.20;;
38843;SDS011;24596;48.080;8.362;2022-09-11T13:57:20;2.00;;;1.00;;
38843;SDS011;24596;48.080;8.362;2022-09-11T13:59:50;4.47;;;1.42;;
38843;SDS011;24596;48.080;8.362;2022-09-11T14:05:21;3.72;;;1.20;;
38843;SDS011;24596;48.080;8.362;2022-09-11T14:10:21;2.22;;;1.10;;
38843;SDS011;24596;48.080;8.362;2022-09-11T14:12:53;4.10;;;1.20;;
38843;SDS011;24596;48.080;8.362;2022-09-11T14:15:26;4.15;;;1.17;;
38843;SDS011;24596;48.080;8.362;2022-09-11T14:17:51;3.17;;;1.00;;
38843;SDS011;24596;48.080;8.362;2022-09-11T14:20:17;2.67;;;1.10;;
38843;SDS011;24596;48.080;8.362;2022-09-11T14:22:44;2.38;;;1.20;;
38843;SDS011;24596;48.080;8.362;2022-09-11T14:25:18;2.95;;;1.05;;
38843;SDS011;24596;48.080;8.362;2022-09-11T14:27:44;2.55;;;1.00;;
38843;SDS011;24596;48.080;8.362;2022-09-11T14:33:21;2.03;;;1.02;;
38843;SDS011;24596;48.080;8.362;2022-09-11T14:35:46;3.90;;;1.23;;
38843;SDS011;24596;48.080;8.362;2022-09-11T14:38:12;2.28;;;1.23;;
38843;SDS011;24596;48.080;8.362;2022-09-11T14:40:41;3.20;;;1.30;;
38843;SDS011;24596;48.080;8.362;2022-09-11T14:43:09;3.70;;;1.10;;
38843;SDS011;24596;48.080;8.362;2022-09-11T14:45:35;3.08;;;1.10;;
38843;SDS011;24596;48.080;8.362;2022-09-11T14:48:01;3.07;;;1.30;;
38843;SDS011;24596;48.080;8.362;2022-09-11T14:50:26;2.72;;;1.10;;
38843;SDS011;24596;48.080;8.362;2022-09-11T14:52:51;4.00;;;1.17;;
38843;SDS011;24596;48.080;8.362;2022-09-11T14:55:17;2.40;;;1.23;;
38843;SDS011;24596;48.080;8.362;2022-09-11T14:57:43;4.05;;;1.40;;
38843;SDS011;24596;48.080;8.362;2022-09-11T15:00:12;4.10;;;1.33;;
38843;SDS011;24596;48.080;8.362;2022-09-11T15:02:37;4.85;;;1.20;;
38843;SDS011;24596;48.080;8.362;2022-09-11T15:05:04;4.35;;;1.17;;
38843;SDS011;24596;48.080;8.362;2022-09-11T15:07:30;3.05;;;1.23;;
38843;SDS011;24596;48.080;8.362;2022-09-11T15:09:55;4.77;;;1.27;;
38843;SDS011;24596;48.080;8.362;2022-09-11T15:12:21;2.50;;;1.25;;
38843;SDS011;24596;48.080;8.362;2022-09-11T15:14:46;2.50;;;1.00;;
38843;SDS011;24596;48.080;8.362;2022-09-11T15:17:12;3.22;;;1.00;;
38843;SDS011;24596;48.080;8.362;2022-09-11T15:19:39;2.95;;;0.93;;
38843;SDS011;24596;48.080;8.362;2022-09-11T15:22:05;2.58;;;0.98;;
38843;SDS011;24596;48.080;8.362;2022-09-11T15:24:32;3.28;;;0.82;;
38843;SDS011;24596;48.080;8.362;2022-09-11T15:26:57;1.73;;;0.85;;
38843;SDS011;24596;48.080;8.362;2022-09-11T15:29:23;2.03;;;0.87;;
38843;SDS011;24596;48.080;8.362;2022-09-11T15:31:49;1.83;;;0.90;;
38843;SDS011;24596;48.080;8.362;2022-09-11T15:34:15;1.88;;;0.90;;
38843;SDS011;24596;48.080;8.362;2022-09-11T15:36:40;4.28;;;1.10;;
38843;SDS011;24596;48.080;8.362;2022-09-11T15:39:06;4.30;;;1.42;;
38843;SDS011;24596;48.080;8.362;2022-09-11T15:41:32;1.63;;;0.90;;
38843;SDS011;24596;48.080;8.362;2022-09-11T15:44:00;1.67;;;0.70;;
38843;SDS011;24596;48.080;8.362;2022-09-11T15:46:26;3.22;;;1.10;;
38843;SDS011;24596;48.080;8.362;2022-09-11T15:48:52;1.70;;;0.93;;
38843;SDS011;24596;48.080;8.362;2022-09-11T15:51:18;4.30;;;1.00;;
38843;SDS011;24596;48.080;8.362;2022-09-11T15:53:45;3.47;;;1.13;;
38843;SDS011;24596;48.080;8.362;2022-09-11T15:56:15;3.42;;;0.98;;
38843;SDS011;24596;48.080;8.362;2022-09-11T15:58:41;5.97;;;1.20;;
38843;SDS011;24596;48.080;8.362;2022-09-11T16:01:15;1.92;;;0.90;;
38843;SDS011;24596;48.080;8.362;2022-09-11T16:03:48;5.20;;;0.90;;
38843;SDS011;24596;48.080;8.362;2022-09-11T16:06:13;2.38;;;0.90;;
38843;SDS011;24596;48.080;8.362;2022-09-11T16:08:39;1.87;;;0.83;;
38843;SDS011;24596;48.080;8.362;2022-09-11T16:11:04;3.40;;;1.63;;
38843;SDS011;24596;48.080;8.362;2022-09-11T16:13:30;2.90;;;0.90;;
38843;SDS011;24596;48.080;8.362;2022-09-11T16:16:00;2.67;;;1.23;;
38843;SDS011;24596;48.080;8.362;2022-09-11T16:18:26;2.20;;;1.00;;
38843;SDS011;24596;48.080;8.362;2022-09-11T16:20:57;2.15;;;1.10;;
38843;SDS011;24596;48.080;8.362;2022-09-11T16:23:23;3.40;;;1.08;;
38843;SDS011;24596;48.080;8.362;2022-09-11T16:25:49;2.47;;;1.23;;
38843;SDS011;24596;48.080;8.362;2022-09-11T16:28:15;5.22;;;1.60;;
38843;SDS011;24596;48.080;8.362;2022-09-11T16:30:40;3.08;;;1.10;;
38843;SDS011;24596;48.080;8.362;2022-09-11T16:33:06;2.95;;;1.20;;
38843;SDS011;24596;48.080;8.362;2022-09-11T16:35:32;2.55;;;1.20;;
38843;SDS011;24596;48.080;8.362;2022-09-11T16:37:58;3.97;;;1.20;;
38843;SDS011;24596;48.080;8.362;2022-09-11T16:40:24;3.03;;;1.30;;
38843;SDS011;24596;48.080;8.362;2022-09-11T16:42:49;4.28;;;1.33;;
38843;SDS011;24596;48.080;8.362;2022-09-11T16:45:15;2.42;;;1.00;;
38843;SDS011;24596;48.080;8.362;2022-09-11T16:47:40;4.03;;;1.20;;
38843;SDS011;24596;48.080;8.362;2022-09-11T16:50:05;2.33;;;1.00;;
38843;SDS011;24596;48.080;8.362;2022-09-11T16:52:31;3.28;;;1.27;;
38843;SDS011;24596;48.080;8.362;2022-09-11T16:54:58;3.10;;;1.15;;
38843;SDS011;24596;48.080;8.362;2022-09-11T16:57:23;3.00;;;1.10;;
38843;SDS011;24596;48.080;8.362;2022-09-11T16:59:51;3.67;;;1.30;;
38843;SDS011;24596;48.080;8.362;2022-09-11T17:02:16;2.23;;;1.17;;